Time;durP1;ratioP1;P1;durP2;ratioP2;P2;SDS_P1;SDS_P2;PMS_P1;PMS_P2;Temp;Humidity;BMP_temperature;BMP_pressure;BME280_temperature;BME280_humidity;BME280_pressure;Samples;Min_cycle;Max_cycle;Signal;HPM_P1;HPM_P2
2021/05/31 00:00:49;375010.00;1.25;646.85;69882.00;0.23;121.56;;;;;14.50;1.00;;;;;;2268392;61;2207;-82
2021/05/31 00:03:16;190973.00;0.64;330.38;0.00;0.00;0.62;;;;;14.30;1.00;;;;;;2267849;61;2026;-82
2021/05/31 00:05:42;83663.00;0.28;145.36;0.00;0.00;0.62;;;;;13.80;1.00;;;;;;2267444;61;1172;-82
2021/05/31 00:08:08;99465.00;0.33;172.65;0.00;0.00;0.62;;;;;13.70;1.00;;;;;;2267665;61;1317;-82
2021/05/31 00:10:35;292008.00;0.97;504.18;67426.00;0.22;117.31;;;;;13.90;1.00;;;;;;2267891;61;1087;-82
2021/05/31 00:13:01;360712.00;1.20;622.27;65844.00;0.22;114.58;;;;;14.20;1.00;;;;;;2268084;61;1319;-82
2021/05/31 00:15:29;360735.00;1.20;622.31;69040.00;0.23;120.10;;;;;14.60;1.00;;;;;;2268217;61;1618;-81
2021/05/31 00:17:57;452606.00;1.51;780.27;80990.00;0.27;140.75;;;;;15.20;1.00;;;;;;2267811;61;1148;-82
2021/05/31 00:20:24;314419.00;1.05;542.71;47064.00;0.16;82.11;;;;;15.60;1.00;;;;;;2268234;61;1327;-82
2021/05/31 00:22:52;158272.00;0.53;274.06;0.00;0.00;0.62;;;;;15.20;1.00;;;;;;2267826;61;1939;-81
2021/05/31 00:25:19;194209.00;0.65;335.95;0.00;0.00;0.62;;;;;14.60;1.00;;;;;;2267512;61;1164;-83
2021/05/31 00:27:45;190612.00;0.64;329.76;0.00;0.00;0.62;;;;;14.70;1.00;;;;;;2267796;61;1172;-82
2021/05/31 00:30:13;106936.00;0.36;185.54;0.00;0.00;0.62;;;;;15.40;1.00;;;;;;2276009;61;1143;-82
2021/05/31 00:32:39;152730.00;0.51;264.51;0.00;0.00;0.62;;;;;16.00;1.00;;;;;;2274824;61;1412;-82
2021/05/31 00:35:10;193952.00;0.65;335.51;0.00;0.00;0.62;;;;;16.50;1.00;;;;;;2268341;61;1160;-82
2021/05/31 00:37:36;111916.00;0.37;194.14;0.00;0.00;0.62;;;;;16.30;1.00;;;;;;2268631;61;1388;-82
2021/05/31 00:40:04;377511.00;1.26;651.15;0.00;0.00;0.62;;;;;16.00;1.00;;;;;;2268479;61;1220;-82
2021/05/31 00:42:31;187657.00;0.63;324.67;0.00;0.00;0.62;;;;;15.40;1.00;;;;;;2268132;61;1919;-83
2021/05/31 00:44:57;68491.00;0.23;119.15;0.00;0.00;0.62;;;;;15.50;1.00;;;;;;2268236;61;1115;-83
2021/05/31 00:47:23;76899.00;0.26;133.68;0.00;0.00;0.62;;;;;15.40;1.00;;;;;;2267664;61;1735;-82
2021/05/31 00:49:50;84894.00;0.28;147.49;0.00;0.00;0.62;;;;;15.80;1.00;;;;;;2267173;61;1071;-83
2021/05/31 00:52:17;208257.00;0.69;360.14;0.00;0.00;0.62;;;;;16.00;1.00;;;;;;2267007;61;1433;-84
2021/05/31 00:54:43;156721.00;0.52;271.39;0.00;0.00;0.62;;;;;16.10;1.00;;;;;;2267407;61;1712;-82
2021/05/31 00:57:10;90507.00;0.30;157.18;0.00;0.00;0.62;;;;;16.50;1.00;;;;;;2267375;61;1121;-82
2021/05/31 00:59:37;492230.00;1.64;848.45;129617.00;0.43;224.67;;;;;16.40;1.00;;;;;;2267061;61;1072;-82
2021/05/31 01:02:03;357219.00;1.19;616.27;69133.00;0.23;120.26;;;;;16.10;1.00;;;;;;2267616;61;1340;-82
2021/05/31 01:04:30;427531.00;1.43;737.14;64502.00;0.22;112.26;;;;;15.90;1.00;;;;;;2270076;61;2034;-82
2021/05/31 01:07:03;439211.00;1.46;757.23;75486.00;0.25;131.24;;;;;16.00;1.00;;;;;;2267112;61;1256;-82
2021/05/31 01:09:45;61855.00;0.21;107.68;0.00;0.00;0.62;;;;;16.20;1.00;;;;;;2267218;61;1562;-82
2021/05/31 01:12:24;40465.00;0.13;70.69;0.00;0.00;0.62;;;;;16.60;1.00;;;;;;2266918;61;1273;-82
2021/05/31 01:15:01;72323.00;0.24;125.77;0.00;0.00;0.62;;;;;16.70;1.00;;;;;;2267066;61;1115;-83
2021/05/31 01:17:36;126962.00;0.42;220.09;42081.00;0.14;73.49;;;;;16.60;1.00;;;;;;2267381;61;1697;-82
2021/05/31 01:20:14;0.00;0.00;0.62;0.00;0.00;0.62;;;;;16.40;1.00;;;;;;2267139;61;1070;-82
2021/05/31 01:22:45;124934.00;0.42;216.59;57956.00;0.19;100.94;;;;;16.40;1.00;;;;;;2266817;61;1937;-82
2021/05/31 01:25:30;225612.00;0.75;390.00;77727.00;0.26;135.11;;;;;15.80;1.00;;;;;;2267593;61;1127;-82
2021/05/31 01:28:21;68073.00;0.23;118.43;0.00;0.00;0.62;;;;;15.50;1.00;;;;;;2267092;61;1113;-82
2021/05/31 01:30:50;148290.00;0.49;256.86;34536.00;0.12;60.43;;;;;15.60;1.00;;;;;;2260305;61;1376;-82
2021/05/31 01:33:20;201468.00;0.67;348.45;73318.00;0.24;127.49;;;;;15.00;1.00;;;;;;2266910;61;1335;-82
2021/05/31 01:35:49;322006.00;1.07;555.75;64637.00;0.22;112.49;;;;;15.10;1.00;;;;;;2267112;61;1191;-82
2021/05/31 01:38:19;308684.00;1.03;532.85;68062.00;0.23;118.41;;;;;15.10;1.00;;;;;;2267133;61;1770;-83
2021/05/31 01:40:47;458089.00;1.53;789.70;66631.00;0.22;115.94;;;;;15.00;1.00;;;;;;2266867;61;1129;-82
2021/05/31 01:43:15;224794.00;0.75;388.59;77719.00;0.26;135.10;;;;;15.40;1.00;;;;;;2266987;61;2033;-82
2021/05/31 01:45:43;290847.00;0.97;502.19;71327.00;0.24;124.05;;;;;15.80;1.00;;;;;;2266940;61;1169;-82
2021/05/31 01:48:12;240855.00;0.80;416.22;65206.00;0.22;113.48;;;;;16.20;1.00;;;;;;2267334;61;1164;-81
2021/05/31 01:50:39;430422.00;1.43;742.11;145415.00;0.48;251.91;;;;;16.30;1.00;;;;;;2266923;61;1957;-82
2021/05/31 01:53:06;310488.00;1.03;535.95;55347.00;0.18;96.43;;;;;16.30;1.00;;;;;;2267201;61;1324;-82
2021/05/31 01:55:33;227939.00;0.76;394.00;75190.00;0.25;130.73;;;;;16.40;1.00;;;;;;2267047;61;1741;-82
2021/05/31 01:58:00;247030.00;0.82;426.84;62525.00;0.21;108.84;;;;;16.20;1.00;;;;;;2268243;61;1188;-81
2021/05/31 02:00:28;312527.00;1.04;539.45;71329.00;0.24;124.06;;;;;15.60;1.00;;;;;;2271898;61;1099;-81
2021/05/31 02:02:55;396392.00;1.32;683.60;73509.00;0.25;127.82;;;;;14.80;1.00;;;;;;2268106;61;2012;-82
2021/05/31 02:05:22;230797.00;0.77;398.92;70526.00;0.24;122.67;;;;;14.30;1.00;;;;;;2267339;61;1211;-82
2021/05/31 02:07:49;322963.00;1.08;557.39;71515.00;0.24;124.38;;;;;13.70;1.00;;;;;;2267642;61;1704;-82
2021/05/31 02:10:15;298711.00;1.00;515.70;67214.00;0.22;116.95;;;;;14.20;1.00;;;;;;2267122;61;1125;-83
2021/05/31 02:12:49;233250.00;0.78;403.14;67293.00;0.22;117.08;;;;;14.70;1.00;;;;;;2266788;61;1362;-83
2021/05/31 02:15:20;347892.00;1.16;600.24;74950.00;0.25;130.31;;;;;14.80;1.00;;;;;;2266819;61;1133;-83
2021/05/31 02:17:55;141561.00;0.47;245.26;604.00;0.00;1.67;;;;;14.70;1.00;;;;;;2267168;61;1103;-83
2021/05/31 02:20:26;257169.00;0.86;444.28;0.00;0.00;0.62;;;;;14.50;1.00;;;;;;2267225;61;1217;-82
2021/05/31 02:22:57;224072.00;0.75;387.35;69022.00;0.23;120.07;;;;;15.00;1.00;;;;;;2267598;61;2026;-82
2021/05/31 02:25:24;242890.00;0.81;419.72;68199.00;0.23;118.65;;;;;15.30;1.00;;;;;;2267559;61;1187;-82
2021/05/31 02:27:51;219319.00;0.73;379.17;74485.00;0.25;129.51;;;;;15.50;1.00;;;;;;2267382;61;1145;-82
2021/05/31 02:30:20;403362.00;1.34;695.58;67913.00;0.23;118.15;;;;;15.50;1.00;;;;;;2267797;61;1198;-83
2021/05/31 02:32:51;328462.00;1.09;566.84;69440.00;0.23;120.79;;;;;15.60;1.00;;;;;;2267704;61;1775;-82
2021/05/31 02:35:18;150663.00;0.50;260.95;0.00;0.00;0.62;;;;;16.00;1.00;;;;;;2267266;61;1220;-82
2021/05/31 02:37:46;127333.00;0.42;220.73;0.00;0.00;0.62;;;;;15.90;1.00;;;;;;2267472;61;1136;-82
2021/05/31 02:40:14;29333.00;0.10;51.43;0.00;0.00;0.62;;;;;15.90;1.00;;;;;;2267930;61;1085;-83
2021/05/31 02:42:43;68363.00;0.23;118.93;0.00;0.00;0.62;;;;;15.60;1.00;;;;;;2267425;61;1951;-83
2021/05/31 02:45:11;110402.00;0.37;191.52;0.00;0.00;0.62;;;;;15.20;1.00;;;;;;2267903;61;2459;-82
2021/05/31 02:47:38;146175.00;0.49;253.22;0.00;0.00;0.62;;;;;15.00;1.00;;;;;;2267794;61;1072;-82
2021/05/31 02:50:05;82947.00;0.28;144.13;0.00;0.00;0.62;;;;;14.60;1.00;;;;;;2268460;61;1268;-83
2021/05/31 02:52:32;120184.00;0.40;208.40;0.00;0.00;0.62;;;;;14.70;1.00;;;;;;2267539;61;1358;-83
2021/05/31 02:54:59;275819.00;0.92;476.35;64373.00;0.21;112.04;;;;;15.00;1.00;;;;;;2271804;61;1196;-83
2021/05/31 02:57:26;148173.00;0.49;256.66;148.00;0.00;0.88;;;;;14.90;1.00;;;;;;2276449;61;1005;-82
2021/05/31 02:59:53;287386.00;0.96;496.24;66752.00;0.22;116.15;;;;;15.50;1.00;;;;;;2276544;61;1147;-83
2021/05/31 03:02:19;199367.00;0.66;344.83;71370.00;0.24;124.13;;;;;15.90;1.00;;;;;;2275837;61;1304;-83
2021/05/31 03:04:46;252101.00;0.84;435.56;73454.00;0.24;127.73;;;;;16.00;1.00;;;;;;2269088;61;2021;-83
2021/05/31 03:07:12;311598.00;1.04;537.86;67952.00;0.23;118.22;;;;;16.10;1.00;;;;;;2276711;61;1101;-82
2021/05/31 03:09:39;337977.00;1.13;583.20;71311.00;0.24;124.03;;;;;15.90;1.00;;;;;;2276743;61;1317;-82
2021/05/31 03:12:08;262623.00;0.88;453.66;70800.00;0.24;123.14;;;;;15.80;1.00;;;;;;2276603;61;1585;-82
2021/05/31 03:14:35;232056.00;0.77;401.09;77321.00;0.26;134.41;;;;;15.20;1.00;;;;;;2276639;61;1191;-82
2021/05/31 03:17:02;424820.00;1.42;732.48;71125.00;0.24;123.70;;;;;14.70;1.00;;;;;;2270615;61;1105;-82
2021/05/31 03:19:28;353885.00;1.18;610.54;79108.00;0.26;137.50;;;;;14.40;1.00;;;;;;2273919;61;1073;-82
2021/05/31 03:21:54;218460.00;0.73;377.69;72891.00;0.24;126.76;;;;;14.40;1.00;;;;;;2276239;61;1128;-81
2021/05/31 03:24:21;267974.00;0.89;462.86;77852.00;0.26;135.33;;;;;14.70;1.00;;;;;;2268353;61;2036;-82
2021/05/31 03:26:47;237622.00;0.79;410.66;80335.00;0.27;139.62;;;;;15.20;1.00;;;;;;2268214;61;1170;-82
2021/05/31 03:29:15;264041.00;0.88;456.10;71463.00;0.24;124.29;;;;;15.50;1.00;;;;;;2268062;61;1175;-82
2021/05/31 03:31:41;263228.00;0.88;454.70;76917.00;0.26;133.71;;;;;16.00;1.00;;;;;;2269034;61;1066;-82
2021/05/31 03:34:08;247319.00;0.82;427.34;72032.00;0.24;125.27;;;;;16.00;1.00;;;;;;2268310;61;1268;-82
2021/05/31 03:36:34;226245.00;0.75;391.09;70704.00;0.24;122.98;;;;;16.30;1.00;;;;;;2271550;61;1163;-82
2021/05/31 03:39:00;234252.00;0.78;404.86;75408.00;0.25;131.10;;;;;16.40;1.00;;;;;;2271604;61;1175;-82
2021/05/31 03:41:27;225240.00;0.75;389.36;75007.00;0.25;130.41;;;;;16.20;1.00;;;;;;2271879;61;1165;-82
2021/05/31 03:43:53;259327.00;0.86;447.99;79651.00;0.27;138.43;;;;;16.00;1.00;;;;;;2271340;61;1919;-82
2021/05/31 03:46:21;400315.00;1.33;690.35;102587.00;0.34;178.04;;;;;15.70;1.00;;;;;;2268717;61;1167;-82
2021/05/31 03:48:47;183390.00;0.61;317.33;76182.00;0.25;132.44;;;;;15.40;1.00;;;;;;2267289;61;1125;-82
2021/05/31 03:51:17;218408.00;0.73;377.60;77299.00;0.26;134.37;;;;;15.40;1.00;;;;;;2267248;61;1376;-83
2021/05/31 03:53:43;667394.00;2.22;1150.74;126861.00;0.42;219.92;;;;;15.30;1.00;;;;;;2267780;61;1250;-83
2021/05/31 03:56:10;326700.00;1.09;563.81;71111.00;0.24;123.68;;;;;15.70;1.00;;;;;;2266947;61;1162;-83
2021/05/31 03:58:38;396561.00;1.32;683.89;75434.00;0.25;131.15;;;;;15.70;1.00;;;;;;2267330;61;1120;-83
2021/05/31 04:01:05;350363.00;1.17;604.49;79480.00;0.26;138.14;;;;;15.80;1.00;;;;;;2267141;61;1160;-83
2021/05/31 04:03:34;323583.00;1.08;558.46;80844.00;0.27;140.50;;;;;15.60;1.00;;;;;;2267171;61;2022;-83
2021/05/31 04:06:14;232369.00;0.77;401.62;68841.00;0.23;119.76;;;;;15.80;1.00;;;;;;2267136;61;1245;-83
2021/05/31 04:11:35;132812.00;0.44;230.18;0.00;0.00;0.62;;;;;16.30;1.00;;;;;;2266821;61;792;-83
2021/05/31 04:14:05;264211.00;0.88;456.39;0.00;0.00;0.62;;;;;16.40;1.00;;;;;;2266521;61;1404;-83
2021/05/31 04:16:33;61919.00;0.21;107.79;0.00;0.00;0.62;;;;;16.40;1.00;;;;;;2267128;61;1078;-83
2021/05/31 04:19:01;11734.00;0.04;20.95;0.00;0.00;0.62;;;;;16.10;1.00;;;;;;2266904;61;1221;-83
2021/05/31 04:21:27;94563.00;0.32;164.19;0.00;0.00;0.62;;;;;15.60;1.00;;;;;;2267131;61;1176;-83
2021/05/31 04:23:54;211451.00;0.70;365.63;0.00;0.00;0.62;;;;;15.00;1.00;;;;;;2266712;61;2014;-83
2021/05/31 04:26:21;221410.00;0.74;382.77;0.00;0.00;0.62;;;;;14.60;1.00;;;;;;2266884;61;1101;-83
2021/05/31 04:28:49;171086.00;0.57;296.14;0.00;0.00;0.62;;;;;14.60;1.00;;;;;;2267183;61;1220;-83
2021/05/31 04:31:16;133313.00;0.44;231.04;0.00;0.00;0.62;;;;;14.50;1.00;;;;;;2266728;61;1723;-82
2021/05/31 04:33:42;212399.00;0.71;367.26;0.00;0.00;0.62;;;;;14.80;1.00;;;;;;2266773;61;1346;-83
2021/05/31 04:36:10;189306.00;0.63;327.51;0.00;0.00;0.62;;;;;15.10;1.00;;;;;;2266845;61;1152;-83
2021/05/31 04:38:37;184021.00;0.61;318.41;0.00;0.00;0.62;;;;;15.30;1.00;;;;;;2267870;61;1178;-83
2021/05/31 04:41:03;188048.00;0.63;325.35;0.00;0.00;0.62;;;;;15.50;1.00;;;;;;2267869;61;1096;-83
2021/05/31 04:43:30;163055.00;0.54;282.30;0.00;0.00;0.62;;;;;15.50;1.00;;;;;;2267878;61;2028;-83
2021/05/31 04:45:57;163213.00;0.54;282.57;0.00;0.00;0.62;;;;;15.10;1.00;;;;;;2270619;61;1087;-82
2021/05/31 04:48:23;141200.00;0.47;244.64;0.00;0.00;0.62;;;;;14.50;1.00;;;;;;2271691;61;1133;-82
2021/05/31 04:50:56;194892.00;0.65;337.13;0.00;0.00;0.62;;;;;14.00;1.00;;;;;;2271057;61;1216;-82
2021/05/31 04:53:24;359411.00;1.20;620.04;75906.00;0.25;131.96;;;;;13.90;1.00;;;;;;2268961;61;1585;-82
2021/05/31 04:55:51;58733.00;0.20;102.29;0.00;0.00;0.62;;;;;14.50;1.00;;;;;;2268961;61;1071;-83
2021/05/31 04:58:19;30486.00;0.10;53.42;0.00;0.00;0.62;;;;;15.10;1.00;;;;;;2268162;61;1557;-83
2021/05/31 05:00:45;128256.00;0.43;222.32;0.00;0.00;0.62;;;;;15.90;1.00;;;;;;2268407;61;1113;-83
2021/05/31 05:03:12;103528.00;0.35;179.66;0.00;0.00;0.62;;;;;16.00;1.00;;;;;;2268252;61;2407;-83
2021/05/31 05:05:39;75459.00;0.25;131.19;0.00;0.00;0.62;;;;;15.50;1.00;;;;;;2268106;61;1599;-83
2021/05/31 05:08:06;45494.00;0.15;79.39;0.00;0.00;0.62;;;;;15.60;1.00;;;;;;2267880;61;1263;-83
2021/05/31 05:10:34;33810.00;0.11;59.18;0.00;0.00;0.62;;;;;15.90;1.00;;;;;;2268248;61;1161;-83
2021/05/31 05:13:00;20857.00;0.07;36.75;0.00;0.00;0.62;;;;;15.70;1.00;;;;;;2268112;61;1390;-83
2021/05/31 05:15:27;146098.00;0.49;253.08;0.00;0.00;0.62;;;;;15.60;1.00;;;;;;2267947;61;1236;-83
2021/05/31 05:17:54;131255.00;0.44;227.49;0.00;0.00;0.62;;;;;15.50;1.00;;;;;;2268212;61;1144;-84
2021/05/31 05:20:22;255288.00;0.85;441.05;46532.00;0.16;81.19;;;;;15.20;1.00;;;;;;2268501;61;1160;-83
2021/05/31 05:22:49;20829.00;0.07;36.71;0.00;0.00;0.62;;;;;15.00;1.00;;;;;;2268270;61;1759;-83
2021/05/31 05:25:17;36719.00;0.12;64.21;0.00;0.00;0.62;;;;;14.90;1.00;;;;;;2268450;61;2017;-83
2021/05/31 05:27:49;71323.00;0.24;124.05;0.00;0.00;0.62;;;;;14.90;1.00;;;;;;2268518;61;1187;-83
2021/05/31 05:30:18;78475.00;0.26;136.40;0.00;0.00;0.62;;;;;14.70;1.00;;;;;;2268811;61;1163;-82
2021/05/31 05:32:48;76077.00;0.25;132.26;0.00;0.00;0.62;;;;;15.10;1.00;;;;;;2268502;61;1481;-83
2021/05/31 05:35:20;77665.00;0.26;135.00;0.00;0.00;0.62;;;;;14.80;1.00;;;;;;2268447;61;1117;-82
2021/05/31 05:38:01;0.00;0.00;0.62;0.00;0.00;0.62;;;;;14.70;1.00;;;;;;2268250;61;1158;-82
2021/05/31 05:43:32;0.00;0.00;0.62;0.00;0.00;0.62;;;;;17.60;1.00;;;;;;2268293;61;1920;-83
2021/05/31 05:46:23;23667.00;0.08;41.62;0.00;0.00;0.62;;;;;20.40;1.00;;;;;;2268723;61;1138;-82
2021/05/31 05:48:51;0.00;0.00;0.62;0.00;0.00;0.62;;;;;22.00;1.00;;;;;;2268401;61;1221;-83
2021/05/31 05:51:17;222.00;0.00;1.00;0.00;0.00;0.62;;;;;23.50;1.00;;;;;;2268314;61;1122;-83
2021/05/31 05:53:46;292786.00;0.98;505.52;48664.00;0.16;84.88;;;;;23.90;1.00;;;;;;2269006;61;1394;-83
2021/05/31 05:56:14;0.00;0.00;0.62;0.00;0.00;0.62;;;;;24.50;1.00;;;;;;2268620;61;1214;-83
2021/05/31 05:58:42;65635.00;0.22;114.22;0.00;0.00;0.62;;;;;25.00;1.00;;;;;;2270438;61;1578;-82
2021/05/31 06:01:10;0.00;0.00;0.62;0.00;0.00;0.62;;;;;25.90;1.00;;;;;;2271042;61;1147;-82
2021/05/31 06:03:37;76870.00;0.26;133.63;0.00;0.00;0.62;;;;;26.50;1.00;;;;;;2271218;61;1924;-83
2021/05/31 06:06:04;0.00;0.00;0.62;0.00;0.00;0.62;;;;;26.20;1.00;;;;;;2270752;61;1159;-82
2021/05/31 06:08:31;0.00;0.00;0.62;0.00;0.00;0.62;;;;;26.70;1.00;;;;;;2273344;61;1125;-83
2021/05/31 06:10:57;16005.00;0.05;28.35;0.00;0.00;0.62;;;;;26.80;1.00;;;;;;2276742;61;1121;-83
2021/05/31 06:13:25;2730.00;0.01;5.35;0.00;0.00;0.62;;;;;28.10;1.00;;;;;;2273431;61;1354;-82
2021/05/31 06:15:53;0.00;0.00;0.62;0.00;0.00;0.62;;;;;28.50;1.00;;;;;;2269976;61;1144;-82
2021/05/31 07:59:04;551800.00;1.84;951.06;0.00;0.00;0.62;;;;;27.70;1.00;;;;;;2281819;61;1208;-89
2021/05/31 08:01:31;145963.00;0.49;252.85;0.00;0.00;0.62;;;;;27.80;1.00;;;;;;2275891;61;966;-89
2021/05/31 08:33:40;13606.00;0.05;24.20;0.00;0.00;0.62;;;;;24.50;1.00;;;;;;2255790;61;1406;-90
2021/05/31 08:36:07;188914.00;0.63;326.84;0.00;0.00;0.62;;;;;24.40;1.00;;;;;;2255760;61;951;-90
2021/05/31 08:38:34;93253.00;0.31;161.92;0.00;0.00;0.62;;;;;24.70;1.00;;;;;;2247715;61;1041;-90
2021/05/31 08:41:01;270347.00;0.90;466.94;0.00;0.00;0.62;;;;;24.20;1.00;;;;;;2247721;61;1484;-89
2021/05/31 08:43:28;36883.00;0.12;64.50;0.00;0.00;0.62;;;;;24.30;1.00;;;;;;2247664;61;2001;-88
2021/05/31 08:48:24;1700478.00;5.67;3026.35;17385.00;0.06;30.74;;;;;25.10;1.00;;;;;;2278309;61;1283;-90
2021/05/31 09:01:04;1406498.00;4.69;2468.38;0.00;0.00;0.62;;;;;24.90;1.00;;;;;;2278571;61;1087;-90
2021/05/31 09:03:32;653639.00;2.18;1126.93;131278.00;0.44;227.53;;;;;25.00;1.00;;;;;;2268270;61;1985;-90
2021/05/31 09:11:00;1156867.00;3.86;2012.43;0.00;0.00;0.62;;;;;23.80;1.00;;;;;;2277616;61;1418;-87
2021/05/31 09:33:32;1215040.00;4.05;2117.44;0.00;0.00;0.62;;;;;22.20;1.00;;;;;;2278809;61;1411;-87
2021/05/31 09:43:30;662373.00;2.21;1142.05;0.00;0.00;0.62;;;;;22.20;1.00;;;;;;2278416;61;1903;-87
2021/05/31 09:45:56;205588.00;0.69;355.54;70872.00;0.24;123.27;;;;;21.60;1.00;;;;;;2264282;61;976;-87
2021/05/31 09:48:33;130364.00;0.43;225.96;0.00;0.00;0.62;;;;;21.40;1.00;;;;;;2264218;61;936;-89
2021/05/31 09:51:01;212425.00;0.71;367.31;0.00;0.00;0.62;;;;;21.70;1.00;;;;;;2256238;61;971;-87
2021/05/31 09:53:36;78110.00;0.26;135.77;0.00;0.00;0.62;;;;;21.50;1.00;;;;;;2252114;61;1320;-89
2021/05/31 09:56:14;209381.00;0.70;362.07;0.00;0.00;0.62;;;;;21.50;1.00;;;;;;2252290;61;1012;-88
2021/05/31 09:58:49;169229.00;0.56;292.94;0.00;0.00;0.62;;;;;21.40;1.00;;;;;;2251695;61;961;-90
2021/05/31 10:01:16;143994.00;0.48;249.46;0.00;0.00;0.62;;;;;21.60;1.00;;;;;;2252191;61;1664;-89
2021/05/31 10:06:43;570441.00;1.90;983.21;0.00;0.00;0.62;;;;;21.30;1.00;;;;;;2274275;61;1449;-89
2021/05/31 10:09:10;279265.00;0.93;482.27;64999.00;0.22;113.12;;;;;21.20;1.00;;;;;;2264206;61;972;-89
2021/05/31 10:11:37;372294.00;1.24;642.18;71890.00;0.24;125.03;;;;;21.30;1.00;;;;;;2264176;61;1044;-88
2021/05/31 10:14:04;147259.00;0.49;255.08;0.00;0.00;0.62;;;;;21.30;1.00;;;;;;2264138;61;1307;-89
2021/05/31 10:23:56;1373660.00;4.58;2407.56;51432.00;0.17;89.66;;;;;21.70;1.00;;;;;;2278519;61;1993;-89
2021/05/31 10:26:29;160824.00;0.54;278.46;0.00;0.00;0.62;;;;;21.90;1.00;;;;;;2269609;61;1003;-89
2021/05/31 10:34:00;923687.00;3.08;1597.76;0.00;0.00;0.62;;;;;21.10;1.00;;;;;;2278768;61;1415;-89
2021/05/31 10:36:33;224017.00;0.75;387.26;0.00;0.00;0.62;;;;;21.20;1.00;;;;;;2264073;61;946;-88
2021/05/31 10:39:04;84521.00;0.28;146.85;0.00;0.00;0.62;;;;;21.60;1.00;;;;;;2254045;61;1049;-87
2021/05/31 10:41:32;168147.00;0.56;291.07;65153.00;0.22;113.38;;;;;21.60;1.00;;;;;;2264171;61;1052;-88
2021/05/31 10:44:00;37956.00;0.13;66.35;0.00;0.00;0.62;;;;;21.50;1.00;;;;;;2255931;61;2003;-88
2021/05/31 10:46:34;65556.00;0.22;114.08;0.00;0.00;0.62;;;;;21.40;1.00;;;;;;2256180;61;934;-87
2021/05/31 10:49:04;36494.00;0.12;63.82;0.00;0.00;0.62;;;;;21.00;1.00;;;;;;2252749;61;979;-89
2021/05/31 10:51:37;56140.00;0.19;97.80;0.00;0.00;0.62;;;;;21.00;1.00;;;;;;2256172;61;1404;-87
2021/05/31 10:54:09;222595.00;0.74;384.81;0.00;0.00;0.62;;;;;21.20;1.00;;;;;;2260125;61;1700;-88
2021/05/31 10:56:36;193674.00;0.65;335.03;0.00;0.00;0.62;;;;;21.40;1.00;;;;;;2256082;61;925;-88
2021/05/31 10:59:03;149978.00;0.50;259.77;0.00;0.00;0.62;;;;;21.60;1.00;;;;;;2256044;61;1708;-87
2021/05/31 11:01:46;73499.00;0.24;127.81;0.00;0.00;0.62;;;;;21.60;1.00;;;;;;2257823;61;1006;-88
2021/05/31 11:04:25;84736.00;0.28;147.22;0.00;0.00;0.62;;;;;21.70;1.00;;;;;;2251991;61;1996;-88
2021/05/31 11:06:54;170146.00;0.57;294.52;19579.00;0.07;34.54;;;;;21.60;1.00;;;;;;2252088;61;963;-88
2021/05/31 11:09:24;46766.00;0.16;81.59;0.00;0.00;0.62;;;;;21.50;1.00;;;;;;2248006;61;933;-88
2021/05/31 11:11:52;43261.00;0.14;75.53;0.00;0.00;0.62;;;;;21.90;1.00;;;;;;2248101;61;1073;-88
2021/05/31 11:14:31;258889.00;0.86;447.24;24790.00;0.08;43.56;;;;;21.00;1.00;;;;;;2252386;61;1603;-89
2021/05/31 11:17:00;140329.00;0.47;243.14;0.00;0.00;0.62;;;;;20.90;1.00;;;;;;2259978;61;1735;-88
2021/05/31 11:19:34;190135.00;0.63;328.94;0.00;0.00;0.62;;;;;21.40;1.00;;;;;;2260020;61;982;-88
2021/05/31 11:34:29;1156057.00;3.85;2010.97;36554.00;0.12;63.93;;;;;22.30;1.00;;;;;;2278219;61;1392;-85
2021/05/31 11:36:59;18862.00;0.06;33.30;0.00;0.00;0.62;;;;;22.10;1.00;;;;;;2276602;61;1040;-86
2021/05/31 11:39:31;0.00;0.00;0.62;0.00;0.00;0.62;;;;;22.00;1.00;;;;;;2276571;61;1034;-86
2021/05/31 11:41:57;60365.00;0.20;105.11;0.00;0.00;0.62;;;;;21.90;1.00;;;;;;2272812;61;942;-86
2021/05/31 11:44:29;34870.00;0.12;61.01;0.00;0.00;0.62;;;;;21.90;1.00;;;;;;2269392;61;2008;-88
2021/05/31 11:46:57;168914.00;0.56;292.40;69945.00;0.23;121.67;;;;;21.60;1.00;;;;;;2276512;61;1081;-87
2021/05/31 11:49:26;170374.00;0.57;294.91;69078.00;0.23;120.17;;;;;21.60;1.00;;;;;;2276461;61;1000;-86
2021/05/31 11:52:02;0.00;0.00;0.62;0.00;0.00;0.62;;;;;22.20;1.00;;;;;;2276509;61;1033;-86
2021/05/31 11:54:32;275510.00;0.92;475.82;70162.00;0.23;122.04;;;;;22.50;1.00;;;;;;2276402;61;1643;-86
2021/05/31 11:57:00;164203.00;0.55;284.28;73156.00;0.24;127.21;;;;;22.00;1.00;;;;;;2276511;61;950;-86
2021/05/31 11:59:31;166435.00;0.55;288.13;71409.00;0.24;124.20;;;;;21.50;1.00;;;;;;2265996;61;945;-87
2021/05/31 12:01:58;223116.00;0.74;385.71;71606.00;0.24;124.54;;;;;21.60;1.00;;;;;;2272697;61;988;-85
2021/05/31 12:04:26;387712.00;1.29;668.68;69901.00;0.23;121.59;;;;;21.70;1.00;;;;;;2272636;61;2010;-84
2021/05/31 12:07:01;293990.00;0.98;507.59;74929.00;0.25;130.28;;;;;21.80;1.00;;;;;;2259232;61;1047;-85
2021/05/31 12:09:27;175831.00;0.59;304.31;69706.00;0.23;121.25;;;;;21.60;1.00;;;;;;2247075;61;1203;-85
2021/05/31 12:11:55;254237.00;0.85;439.24;76477.00;0.25;132.95;;;;;21.50;1.00;;;;;;2247228;61;1751;-85
2021/05/31 12:14:24;286663.00;0.96;494.99;66161.00;0.22;115.13;;;;;21.70;1.00;;;;;;2246571;61;1310;-85
2021/05/31 12:16:58;340487.00;1.13;587.51;72266.00;0.24;125.68;;;;;21.80;1.00;;;;;;2248421;61;1704;-85
2021/05/31 12:19:26;298277.00;0.99;514.96;67398.00;0.22;117.26;;;;;22.60;1.00;;;;;;2247903;61;1115;-85
2021/05/31 12:21:55;333892.00;1.11;576.18;130536.00;0.44;226.25;;;;;23.10;1.00;;;;;;2246910;61;1141;-85
2021/05/31 12:24:29;525185.00;1.75;905.20;99513.00;0.33;172.73;;;;;22.80;1.00;;;;;;2249938;61;2006;-85
2021/05/31 12:26:58;332496.00;1.11;573.78;67015.00;0.22;116.60;;;;;22.70;1.00;;;;;;2246458;61;1073;-85
2021/05/31 12:29:37;338569.00;1.13;584.21;81533.00;0.27;141.69;;;;;22.30;1.00;;;;;;2256885;61;1379;-86
2021/05/31 12:32:05;340847.00;1.14;588.13;65458.00;0.22;113.91;;;;;22.50;1.00;;;;;;2255137;61;1559;-87
2021/05/31 12:34:34;449949.00;1.50;775.69;75358.00;0.25;131.02;;;;;22.40;1.00;;;;;;2256566;61;1700;-85
2021/05/31 12:37:01;580536.00;1.94;1000.62;112684.00;0.38;195.46;;;;;22.50;1.00;;;;;;2257708;61;1570;-85
2021/05/31 12:39:29;214801.00;0.72;371.40;73794.00;0.25;128.32;;;;;22.40;1.00;;;;;;2260729;61;1090;-86
2021/05/31 12:41:59;357293.00;1.19;616.40;71366.00;0.24;124.12;;;;;22.10;1.00;;;;;;2246973;61;1237;-84
2021/05/31 12:44:27;553435.00;1.84;953.88;79550.00;0.27;138.26;;;;;22.10;1.00;;;;;;2250379;61;1926;-85
2021/05/31 12:49:28;1693383.00;5.64;3012.57;161688.00;0.54;279.95;;;;;22.40;1.00;;;;;;2276003;61;1314;-84
2021/05/31 12:51:56;559228.00;1.86;963.87;77449.00;0.26;134.63;;;;;22.00;1.00;;;;;;2275282;61;1140;-84
2021/05/31 12:54:24;392386.00;1.31;676.72;152750.00;0.51;264.55;;;;;22.30;1.00;;;;;;2271866;61;1455;-86
2021/05/31 12:56:52;435715.00;1.45;751.21;76093.00;0.25;132.29;;;;;22.50;1.00;;;;;;2263335;61;1462;-85
2021/05/31 12:59:25;554075.00;1.85;954.98;129988.00;0.43;225.31;;;;;22.30;1.00;;;;;;2263180;61;1180;-85
2021/05/31 13:02:02;260667.00;0.87;450.30;63175.00;0.21;109.97;;;;;22.30;1.00;;;;;;2258641;61;1134;-85
2021/05/31 13:04:29;486348.00;1.62;838.32;73769.00;0.25;128.27;;;;;22.10;1.00;;;;;;2245968;61;2011;-85
2021/05/31 13:06:55;340467.00;1.13;587.48;74714.00;0.25;129.91;;;;;22.20;1.00;;;;;;2246178;62;1180;-85
2021/05/31 13:09:24;343758.00;1.15;593.13;66426.00;0.22;115.58;;;;;22.40;1.00;;;;;;2239682;62;1189;-85
2021/05/31 13:11:53;219654.00;0.73;379.75;83176.00;0.28;144.52;;;;;22.60;1.00;;;;;;2244809;62;1051;-84
2021/05/31 13:14:22;281839.00;0.94;486.70;64916.00;0.22;112.97;;;;;22.30;1.00;;;;;;2244862;61;1457;-85
2021/05/31 13:16:58;290051.00;0.97;500.82;67109.00;0.22;116.76;;;;;22.40;1.00;;;;;;2248323;61;1139;-85
2021/05/31 13:19:26;169809.00;0.57;293.94;70729.00;0.24;123.02;;;;;22.20;1.00;;;;;;2246510;61;1191;-85
2021/05/31 13:22:00;311863.00;1.04;538.31;70778.00;0.24;123.10;;;;;22.20;1.00;;;;;;2254983;61;1157;-85
2021/05/31 13:24:28;298595.00;1.00;515.50;71678.00;0.24;124.66;;;;;22.80;1.00;;;;;;2257984;61;1919;-85